Time;durP1;ratioP1;P1;durP2;ratioP2;P2;SDS_P1;SDS_P2;PMS_P1;PMS_P2;Temp;Humidity;BMP_temperature;BMP_pressure;BME280_temperature;BME280_humidity;BME280_pressure;Samples;Min_cycle;Max_cycle;Signal;HPM_P1;HPM_P2
2022/10/26 00:00:49;;;;;;;19.83;11.50;;;9.20;99.90;;;;;;4919449;29;20504;-65
2022/10/26 00:03:15;;;;;;;21.85;12.27;;;9.10;99.90;;;;;;4926280;29;20075;-66
2022/10/26 00:05:41;;;;;;;19.02;10.38;;;9.10;99.90;;;;;;4929659;29;20138;-65
2022/10/26 00:08:07;;;;;;;23.27;11.50;;;9.10;99.90;;;;;;4932697;29;20486;-65
2022/10/26 00:10:34;;;;;;;19.63;11.60;;;9.10;99.90;;;;;;4929970;29;20094;-65
2022/10/26 00:13:01;;;;;;;19.73;10.77;;;9.10;99.90;;;;;;4927535;29;20488;-65
2022/10/26 00:15:26;;;;;;;18.23;11.00;;;9.10;99.90;;;;;;4929800;29;20131;-66
2022/10/26 00:17:52;;;;;;;20.23;10.68;;;9.10;99.90;;;;;;4929504;29;20092;-66
2022/10/26 00:20:18;;;;;;;17.90;10.73;;;9.10;99.90;;;;;;4928665;29;20047;-66
2022/10/26 00:22:45;;;;;;;22.85;11.38;;;9.00;99.90;;;;;;4929565;29;20036;-66
2022/10/26 00:25:10;;;;;;;16.92;10.00;;;9.00;99.90;;;;;;4934098;29;20472;-66
2022/10/26 00:27:36;;;;;;;18.58;10.27;;;8.90;99.90;;;;;;4929298;29;20059;-65
2022/10/26 00:30:03;;;;;;;17.70;10.10;;;8.90;99.90;;;;;;4933883;29;20042;-66
2022/10/26 00:32:28;;;;;;;17.55;10.48;;;8.90;99.90;;;;;;4914395;29;21253;-66
2022/10/26 00:34:54;;;;;;;16.42;10.05;;;8.80;99.90;;;;;;4930396;29;20043;-65
2022/10/26 00:37:20;;;;;;;16.13;9.95;;;8.80;99.90;;;;;;4929753;29;20051;-66
2022/10/26 00:39:45;;;;;;;17.60;10.10;;;8.80;99.90;;;;;;4929686;29;20448;-65
2022/10/26 00:42:20;;;;;;;14.88;9.45;;;8.70;99.90;;;;;;4931295;29;20372;-66
2022/10/26 00:44:45;;;;;;;19.52;10.10;;;8.70;99.90;;;;;;4926168;29;20059;-65
2022/10/26 00:47:39;;;;;;;16.45;9.55;;;8.60;99.90;;;;;;4933388;29;20404;-65
2022/10/26 00:50:21;;;;;;;17.00;9.48;;;8.60;99.90;;;;;;4920144;29;20107;-65
2022/10/26 00:52:49;;;;;;;18.38;10.32;;;8.50;99.90;;;;;;4931808;29;20032;-65
2022/10/26 00:55:20;;;;;;;17.20;9.00;;;8.50;99.90;;;;;;4934508;29;20074;-65
2022/10/26 00:57:47;;;;;;;18.35;8.88;;;8.50;99.90;;;;;;4928196;29;20070;-66
2022/10/26 01:00:12;;;;;;;16.23;8.90;;;8.40;99.90;;;;;;4914959;29;20118;-66
2022/10/26 01:02:38;;;;;;;15.10;8.70;;;8.30;99.90;;;;;;4916440;29;20039;-65
2022/10/26 01:05:05;;;;;;;15.13;8.70;;;8.30;99.90;;;;;;4930113;29;20043;-66
2022/10/26 01:07:32;;;;;;;16.30;9.93;;;8.30;99.90;;;;;;4932009;29;20411;-65
2022/10/26 01:09:59;;;;;;;16.75;10.60;;;8.30;99.90;;;;;;4916784;29;20106;-65
2022/10/26 01:12:25;;;;;;;23.08;12.07;;;8.30;99.90;;;;;;4915582;29;20365;-65
2022/10/26 01:14:51;;;;;;;21.25;11.93;;;8.40;99.90;;;;;;4929499;29;20128;-65
2022/10/26 01:17:34;;;;;;;23.70;12.63;;;8.40;99.90;;;;;;4928945;29;20039;-65
2022/10/26 01:20:34;;;;;;;22.25;12.07;;;8.40;99.90;;;;;;4932517;29;20054;-65
2022/10/26 01:23:44;;;;;;;22.73;11.98;;;8.30;99.90;;;;;;4934466;29;20083;-66
2022/10/26 01:26:17;;;;;;;21.30;11.00;;;8.30;99.90;;;;;;4927880;29;20044;-65
2022/10/26 01:29:01;;;;;;;19.83;11.23;;;8.30;99.90;;;;;;4928304;29;20491;-65
2022/10/26 01:31:38;;;;;;;22.90;12.15;;;8.20;99.90;;;;;;4930740;29;20054;-65
2022/10/26 01:34:19;;;;;;;20.58;12.60;;;8.20;99.90;;;;;;4929136;29;20650;-65
2022/10/26 01:36:55;;;;;;;23.70;13.25;;;8.30;99.90;;;;;;4927823;29;20352;-65
2022/10/26 01:39:28;;;;;;;32.92;14.63;;;8.30;99.90;;;;;;4929101;29;20051;-65
2022/10/26 01:41:59;;;;;;;27.67;14.13;;;8.30;99.90;;;;;;4927714;29;20136;-65
2022/10/26 01:44:38;;;;;;;;;;;8.30;99.90;;;;;;4928043;29;20118;-65
2022/10/26 01:47:05;;;;;;;30.70;14.07;;;8.30;99.90;;;;;;4924451;29;19974;-66
2022/10/26 01:49:37;;;;;;;28.75;14.27;;;8.30;99.90;;;;;;4931393;29;20419;-65
2022/10/26 01:52:03;;;;;;;32.22;15.35;;;8.30;99.90;;;;;;4915935;29;20476;-66
2022/10/26 01:54:29;;;;;;;31.35;14.57;;;8.40;99.90;;;;;;4916161;29;20062;-66
2022/10/26 01:57:00;;;;;;;30.35;15.25;;;8.40;99.90;;;;;;4910098;29;20146;-66
2022/10/26 01:59:46;;;;;;;29.27;15.68;;;8.40;99.90;;;;;;4928829;29;20071;-66
2022/10/26 02:02:30;;;;;;;30.20;15.90;;;8.50;99.90;;;;;;4914840;29;20044;-66
2022/10/26 02:05:20;;;;;;;28.83;15.05;;;8.40;99.90;;;;;;4929708;29;20408;-66
2022/10/26 02:08:03;;;;;;;30.80;15.85;;;8.50;99.90;;;;;;4926086;29;20071;-65
2022/10/26 02:10:39;;;;;;;29.17;14.85;;;8.50;99.90;;;;;;4931496;29;20432;-66
2022/10/26 02:13:18;;;;;;;28.20;14.63;;;8.50;99.90;;;;;;4931754;29;20046;-66
2022/10/26 02:15:56;;;;;;;28.25;14.35;;;8.50;99.90;;;;;;4929021;29;20424;-65
2022/10/26 02:18:48;;;;;;;30.63;14.80;;;8.40;99.90;;;;;;4922643;29;20036;-66
2022/10/26 02:21:20;;;;;;;24.33;13.80;;;8.40;99.90;;;;;;4929492;29;20855;-66
2022/10/26 02:23:48;;;;;;;27.13;15.43;;;8.40;99.90;;;;;;4925898;29;20463;-65
2022/10/26 02:26:16;;;;;;;33.10;15.52;;;8.40;99.90;;;;;;4931870;29;20412;-66
2022/10/26 02:28:47;;;;;;;27.73;15.13;;;8.40;99.90;;;;;;4930861;29;20043;-66
2022/10/26 02:31:13;;;;;;;;;;;8.40;99.90;;;;;;4928199;29;20050;-65
2022/10/26 02:33:44;;;;;;;28.95;14.35;;;8.40;99.90;;;;;;4931158;29;19919;-65
2022/10/26 02:36:15;;;;;;;26.95;14.95;;;8.30;99.90;;;;;;4914666;29;20079;-65
2022/10/26 02:38:42;;;;;;;26.75;14.27;;;8.40;99.90;;;;;;4927917;29;20040;-66
2022/10/26 02:41:11;;;;;;;30.25;14.82;;;8.40;99.90;;;;;;4913522;29;20115;-65
2022/10/26 02:43:47;;;;;;;30.38;15.20;;;8.40;99.90;;;;;;4911508;29;20368;-65
2022/10/26 02:46:16;;;;;;;32.38;16.80;;;8.40;99.90;;;;;;4924642;29;20223;-66
2022/10/26 02:48:42;;;;;;;32.63;15.55;;;8.40;99.90;;;;;;4915158;29;20055;-65
2022/10/26 02:51:17;;;;;;;30.38;15.52;;;8.40;99.90;;;;;;4928461;29;20051;-65
2022/10/26 02:53:53;;;;;;;29.42;16.02;;;8.40;99.90;;;;;;4932850;29;20090;-66
2022/10/26 02:56:43;;;;;;;33.13;16.05;;;8.40;99.90;;;;;;4927188;29;20056;-65
2022/10/26 02:59:11;;;;;;;30.63;16.70;;;8.40;99.90;;;;;;4910346;29;20055;-66
2022/10/26 03:01:37;;;;;;;31.35;16.90;;;8.30;99.90;;;;;;4929588;29;20158;-66
2022/10/26 03:04:03;;;;;;;33.63;15.95;;;8.30;99.90;;;;;;4914660;29;20074;-65
2022/10/26 03:06:28;;;;;;;28.23;16.02;;;8.30;99.90;;;;;;4914615;29;20495;-66
2022/10/26 03:08:54;;;;;;;30.50;17.30;;;8.40;99.90;;;;;;4930633;29;20040;-66
2022/10/26 03:11:19;;;;;;;31.58;16.58;;;8.30;99.90;;;;;;4930257;29;20043;-66
2022/10/26 03:13:45;;;;;;;32.38;16.42;;;8.40;99.90;;;;;;4911081;29;20051;-66
2022/10/26 03:16:11;;;;;;;34.15;17.75;;;8.40;99.90;;;;;;4911301;29;20047;-65
2022/10/26 03:18:36;;;;;;;33.20;16.73;;;8.40;99.90;;;;;;4928033;29;20044;-65
2022/10/26 03:21:02;;;;;;;36.22;18.45;;;8.40;99.90;;;;;;4926756;29;20817;-66
2022/10/26 03:23:27;;;;;;;34.33;18.60;;;8.40;99.90;;;;;;4929408;29;20130;-65
2022/10/26 03:25:57;;;;;;;35.25;17.60;;;8.40;99.90;;;;;;4914644;29;20051;-66
2022/10/26 03:28:23;;;;;;;35.07;18.40;;;8.40;99.90;;;;;;4928777;29;20044;-66
2022/10/26 03:30:48;;;;;;;33.42;17.60;;;8.50;99.90;;;;;;4908417;29;20314;-66
2022/10/26 03:33:14;;;;;;;38.03;18.67;;;8.50;99.90;;;;;;4930844;29;20046;-66
2022/10/26 03:35:39;;;;;;;35.72;17.92;;;8.50;99.90;;;;;;4912863;29;20048;-66
2022/10/26 03:38:05;;;;;;;33.40;18.17;;;8.50;99.90;;;;;;4926544;29;20044;-66
2022/10/26 03:40:30;;;;;;;34.88;18.85;;;8.50;99.90;;;;;;4911549;29;20048;-65
2022/10/26 03:42:56;;;;;;;40.30;19.02;;;8.50;99.90;;;;;;4924876;29;20027;-65
2022/10/26 03:45:22;;;;;;;35.10;17.77;;;8.60;99.90;;;;;;4926592;29;20036;-65
2022/10/26 03:47:48;;;;;;;37.35;18.63;;;8.50;99.90;;;;;;4930032;29;20039;-65
2022/10/26 03:50:17;;;;;;;38.72;18.58;;;8.60;99.90;;;;;;4926772;29;20047;-66
2022/10/26 03:52:43;;;;;;;33.88;17.58;;;8.50;99.90;;;;;;4929605;29;20050;-66
2022/10/26 03:55:09;;;;;;;38.03;19.67;;;8.50;99.90;;;;;;4929787;29;20042;-65
2022/10/26 03:57:40;;;;;;;35.80;18.83;;;8.50;99.90;;;;;;4910809;29;20055;-65
2022/10/26 04:00:06;;;;;;;34.25;17.02;;;8.60;99.90;;;;;;4929157;29;20043;-65
2022/10/26 04:02:32;;;;;;;30.60;17.17;;;8.50;99.90;;;;;;4929168;29;20040;-65
2022/10/26 04:04:57;;;;;;;41.65;18.48;;;8.50;99.90;;;;;;4928289;29;20046;-64
2022/10/26 04:07:23;;;;;;;34.85;18.17;;;8.50;99.90;;;;;;4927343;29;20395;-66
2022/10/26 04:09:48;;;;;;;31.52;18.00;;;8.50;99.90;;;;;;4915228;29;20046;-65
2022/10/26 04:12:14;;;;;;;35.90;18.52;;;8.50;99.90;;;;;;4924365;29;20036;-66
2022/10/26 04:14:39;;;;;;;38.50;19.10;;;8.50;99.90;;;;;;4929875;29;20064;-66
2022/10/26 04:17:05;;;;;;;36.92;18.38;;;8.50;99.90;;;;;;4932525;29;20126;-66
2022/10/26 04:19:30;;;;;;;44.55;19.95;;;8.50;99.90;;;;;;4931016;29;20048;-65
2022/10/26 04:21:56;;;;;;;36.53;19.10;;;8.50;99.90;;;;;;4927729;29;20455;-66
2022/10/26 04:24:21;;;;;;;35.53;18.90;;;8.60;99.90;;;;;;4925881;29;20646;-66
2022/10/26 04:26:47;;;;;;;41.40;20.67;;;8.50;99.90;;;;;;4927145;29;20040;-66
2022/10/26 04:29:12;;;;;;;37.42;19.25;;;8.60;99.90;;;;;;4929461;29;20070;-66
2022/10/26 04:31:38;;;;;;;38.30;19.70;;;8.50;99.90;;;;;;4928588;29;20040;-66
2022/10/26 04:34:04;;;;;;;38.03;20.30;;;8.50;99.90;;;;;;4915865;29;20067;-65
2022/10/26 04:36:29;;;;;;;41.95;19.65;;;8.50;99.90;;;;;;4928997;29;20035;-66
2022/10/26 04:38:55;;;;;;;40.45;19.92;;;8.50;99.90;;;;;;4910895;29;20058;-65
2022/10/26 04:41:20;;;;;;;37.10;20.33;;;8.60;99.90;;;;;;4929263;29;20546;-66
2022/10/26 04:43:46;;;;;;;39.58;20.25;;;8.60;99.90;;;;;;4925900;29;20040;-66
2022/10/26 04:46:13;;;;;;;38.90;19.90;;;8.70;99.90;;;;;;4928973;29;20448;-66
2022/10/26 04:48:39;;;;;;;37.35;19.60;;;8.70;99.90;;;;;;4930555;29;20052;-66
2022/10/26 04:51:04;;;;;;;34.75;18.58;;;8.70;99.90;;;;;;4929333;29;20071;-66
2022/10/26 04:53:30;;;;;;;40.10;17.75;;;8.80;99.90;;;;;;4913345;29;20432;-67
2022/10/26 04:55:57;;;;;;;39.97;18.92;;;8.80;99.90;;;;;;4926833;29;20511;-66
2022/10/26 04:58:22;;;;;;;43.22;19.83;;;8.80;99.90;;;;;;4925209;29;20490;-65
2022/10/26 05:00:48;;;;;;;41.30;20.25;;;8.90;99.90;;;;;;4910024;29;20043;-65
2022/10/26 05:03:13;;;;;;;36.45;18.67;;;8.90;99.90;;;;;;4928369;29;20050;-66
2022/10/26 05:05:39;;;;;;;36.65;19.48;;;8.90;99.90;;;;;;4930167;29;20036;-65
2022/10/26 05:08:05;;;;;;;36.72;19.35;;;9.00;99.90;;;;;;4898742;29;20056;-66
2022/10/26 05:10:30;;;;;;;36.30;18.67;;;9.00;99.90;;;;;;4914394;29;20078;-66
2022/10/26 05:12:58;;;;;;;38.10;19.85;;;9.10;99.90;;;;;;4930871;29;20087;-66
2022/10/26 05:15:23;;;;;;;41.10;19.63;;;9.10;99.90;;;;;;4907774;29;20075;-66
2022/10/26 05:18:01;;;;;;;37.47;19.13;;;9.10;99.90;;;;;;4930706;29;20063;-65
2022/10/26 05:20:30;;;;;;;35.15;19.02;;;9.10;99.90;;;;;;4930841;29;20495;-65
2022/10/26 05:23:00;;;;;;;36.15;18.65;;;9.20;99.90;;;;;;4928802;29;20083;-66
2022/10/26 05:25:28;;;;;;;38.13;18.42;;;9.10;99.90;;;;;;4901404;29;20047;-65
2022/10/26 05:28:06;;;;;;;35.40;17.42;;;9.20;99.90;;;;;;4926289;29;20040;-66
2022/10/26 05:30:32;;;;;;;39.15;19.00;;;9.10;99.90;;;;;;4930371;29;20397;-66
2022/10/26 05:33:01;;;;;;;34.00;18.08;;;9.10;99.90;;;;;;4930767;29;20555;-66
2022/10/26 05:35:27;;;;;;;32.63;16.95;;;9.10;99.90;;;;;;4908307;29;20044;-66
2022/10/26 05:37:53;;;;;;;35.17;18.50;;;9.20;99.90;;;;;;4931516;29;20042;-65
2022/10/26 05:40:19;;;;;;;35.90;18.38;;;9.10;99.90;;;;;;4932127;29;20039;-66
2022/10/26 05:42:44;;;;;;;35.55;17.40;;;9.20;99.90;;;;;;4898129;29;20106;-65
2022/10/26 05:45:11;;;;;;;35.33;16.83;;;9.20;99.90;;;;;;4909476;29;20043;-66
2022/10/26 05:47:40;;;;;;;36.47;18.10;;;9.20;99.90;;;;;;4910393;29;20047;-66
2022/10/26 05:50:07;;;;;;;36.88;17.90;;;9.20;99.90;;;;;;4931775;29;20044;-65
2022/10/26 05:52:40;;;;;;;34.25;16.80;;;9.20;99.90;;;;;;4931904;29;20051;-65
2022/10/26 05:55:07;;;;;;;29.15;17.10;;;9.20;99.90;;;;;;4934323;29;20043;-65
2022/10/26 05:57:33;;;;;;;34.75;17.52;;;9.20;99.90;;;;;;4927893;29;20052;-65
2022/10/26 05:59:59;;;;;;;32.83;17.35;;;9.20;99.90;;;;;;4912485;29;20051;-65
2022/10/26 06:03:00;;;;;;;30.63;16.30;;;9.20;99.90;;;;;;4931419;29;20175;-65
2022/10/26 06:05:31;;;;;;;29.02;15.55;;;9.30;99.90;;;;;;4931170;29;20484;-65
2022/10/26 06:07:57;;;;;;;31.00;15.77;;;9.30;99.90;;;;;;4929811;29;20486;-65
2022/10/26 06:10:23;;;;;;;33.95;16.48;;;9.30;99.90;;;;;;4914056;29;20122;-65
2022/10/26 06:12:49;;;;;;;27.77;15.13;;;9.30;99.90;;;;;;4930648;29;20377;-66
2022/10/26 06:15:20;;;;;;;30.75;15.57;;;9.30;99.90;;;;;;4914383;29;20044;-66
2022/10/26 06:18:01;;;;;;;32.65;14.98;;;9.40;99.90;;;;;;4930517;29;20515;-66
2022/10/26 06:20:50;;;;;;;25.75;14.80;;;9.40;99.90;;;;;;4927339;29;20040;-66
2022/10/26 06:23:44;;;;;;;31.40;15.23;;;9.40;99.90;;;;;;4930586;29;20040;-66
2022/10/26 06:26:40;;;;;;;30.20;15.23;;;9.40;99.90;;;;;;4930384;29;20054;-66
2022/10/26 06:29:24;;;;;;;23.50;14.13;;;9.40;99.90;;;;;;4924550;29;20058;-65
2022/10/26 06:31:50;;;;;;;29.77;15.25;;;9.50;99.90;;;;;;4928192;29;20044;-66
2022/10/26 06:34:24;;;;;;;26.08;14.48;;;9.50;99.90;;;;;;4928367;29;20050;-67
2022/10/26 06:36:50;;;;;;;30.75;15.23;;;9.50;99.90;;;;;;4931855;29;20163;-65
2022/10/26 06:39:17;;;;;;;27.98;13.95;;;9.60;99.90;;;;;;4928844;29;20424;-65
2022/10/26 06:41:43;;;;;;;31.55;13.82;;;9.60;99.90;;;;;;4931448;29;20387;-65
2022/10/26 06:44:14;;;;;;;26.02;13.77;;;9.60;99.90;;;;;;4927277;29;20036;-66
2022/10/26 06:46:50;;;;;;;26.35;14.10;;;9.60;99.90;;;;;;4927634;29;20068;-66
2022/10/26 06:49:33;;;;;;;26.10;14.07;;;9.60;99.90;;;;;;4931031;29;20055;-66
2022/10/26 06:52:08;;;;;;;21.10;12.90;;;9.60;99.90;;;;;;4925983;29;20551;-65
2022/10/26 06:54:51;;;;;;;23.10;13.85;;;9.60;99.90;;;;;;4926339;29;20042;-66
2022/10/26 06:57:19;;;;;;;25.02;13.60;;;9.70;99.90;;;;;;4921829;29;20448;-65
2022/10/26 06:59:54;;;;;;;23.75;12.35;;;9.70;99.90;;;;;;4930526;29;20039;-66
2022/10/26 07:02:20;;;;;;;24.52;13.38;;;9.70;99.90;;;;;;4928328;29;20040;-66
2022/10/26 07:04:46;;;;;;;24.58;12.45;;;9.70;99.90;;;;;;4930630;29;20055;-66
2022/10/26 07:07:16;;;;;;;25.10;12.05;;;9.70;99.90;;;;;;4934168;29;20487;-66
2022/10/26 07:09:41;;;;;;;25.50;12.68;;;9.70;99.90;;;;;;4921572;29;20075;-66
2022/10/26 07:12:07;;;;;;;22.48;12.10;;;9.60;99.90;;;;;;4917287;29;20067;-66
2022/10/26 07:14:33;;;;;;;22.30;11.57;;;9.60;99.90;;;;;;4930442;29;20035;-66
2022/10/26 07:16:59;;;;;;;23.50;11.55;;;9.60;99.90;;;;;;4931050;29;20043;-66
2022/10/26 07:19:25;;;;;;;19.55;11.32;;;9.60;99.90;;;;;;4931345;29;20043;-66
2022/10/26 07:21:55;;;;;;;22.60;12.20;;;9.60;99.90;;;;;;4932136;29;20071;-66
2022/10/26 07:24:21;;;;;;;22.17;11.85;;;9.50;99.90;;;;;;4930906;29;20066;-66
2022/10/26 07:26:47;;;;;;;19.95;9.73;;;9.50;99.90;;;;;;4915724;29;20038;-66
2022/10/26 07:29:13;;;;;;;26.08;11.90;;;9.50;99.90;;;;;;4928533;29;20067;-66
2022/10/26 07:31:38;;;;;;;20.88;11.57;;;9.60;99.90;;;;;;4931965;29;20047;-66
2022/10/26 07:34:04;;;;;;;26.83;11.82;;;9.60;99.90;;;;;;4929463;29;20044;-66
2022/10/26 07:36:29;;;;;;;21.30;11.95;;;9.70;99.90;;;;;;4929527;29;20040;-66
2022/10/26 07:38:55;;;;;;;21.65;11.90;;;9.90;99.90;;;;;;4931452;29;20400;-65
2022/10/26 07:41:21;;;;;;;23.88;12.25;;;10.00;99.90;;;;;;4933517;29;20066;-66
2022/10/26 07:43:49;;;;;;;23.23;12.02;;;10.20;99.90;;;;;;4931010;29;20142;-66
2022/10/26 07:46:15;;;;;;;18.65;12.02;;;10.30;99.90;;;;;;4929813;29;20035;-66
2022/10/26 07:48:41;;;;;;;18.88;11.02;;;10.40;99.90;;;;;;4930781;29;20048;-66
2022/10/26 07:51:07;;;;;;;18.88;10.43;;;10.50;99.90;;;;;;4932080;29;20036;-65
2022/10/26 07:53:32;;;;;;;19.05;10.40;;;10.50;99.90;;;;;;4929028;29;20087;-65
2022/10/26 07:55:58;;;;;;;19.17;10.82;;;10.60;99.90;;;;;;4916729;29;20048;-65
2022/10/26 07:58:25;;;;;;;17.75;10.32;;;10.60;99.90;;;;;;4929502;29;20040;-67
2022/10/26 08:00:54;;;;;;;17.02;10.48;;;10.60;99.90;;;;;;4928823;29;20078;-65
2022/10/26 08:03:20;;;;;;;18.20;10.20;;;10.70;99.90;;;;;;4924294;29;20088;-65
2022/10/26 08:05:49;;;;;;;15.07;9.13;;;10.80;99.90;;;;;;4931306;29;20048;-65
2022/10/26 08:08:18;;;;;;;17.35;10.20;;;11.00;99.90;;;;;;4928889;29;20586;-66
2022/10/26 08:10:45;;;;;;;15.75;9.10;;;11.10;99.90;;;;;;4928127;29;20083;-66
2022/10/26 08:13:11;;;;;;;16.15;8.75;;;11.10;99.90;;;;;;4913424;29;20476;-65
2022/10/26 08:15:37;;;;;;;14.57;7.97;;;11.20;99.90;;;;;;4925047;29;20036;-64
2022/10/26 08:18:03;;;;;;;13.90;8.40;;;11.30;99.90;;;;;;4927493;29;20134;-64
2022/10/26 08:20:29;;;;;;;15.10;8.82;;;11.40;99.90;;;;;;4912814;29;20044;-65
2022/10/26 08:22:58;;;;;;;12.45;8.45;;;11.50;99.90;;;;;;4909800;29;20036;-66
2022/10/26 08:25:24;;;;;;;13.45;7.90;;;11.70;99.90;;;;;;4926805;29;20052;-64
2022/10/26 08:27:50;;;;;;;13.45;8.40;;;11.60;99.90;;;;;;4925180;29;20047;-66
2022/10/26 08:30:16;;;;;;;12.77;8.05;;;11.70;99.90;;;;;;4932236;29;20052;-66
2022/10/26 08:32:42;;;;;;;17.40;8.63;;;11.70;99.90;;;;;;4928790;29;20472;-66
2022/10/26 08:35:09;;;;;;;15.70;8.18;;;11.80;99.90;;;;;;4929286;29;20106;-66
2022/10/26 08:37:34;;;;;;;13.13;7.47;;;12.00;99.90;;;;;;4930623;29;20046;-66
2022/10/26 08:40:00;;;;;;;14.65;8.15;;;12.00;99.90;;;;;;4928694;29;20487;-66
2022/10/26 08:42:35;;;;;;;17.10;8.30;;;12.00;99.90;;;;;;4912729;29;20092;-66
2022/10/26 08:45:08;;;;;;;12.70;6.95;;;12.00;99.90;;;;;;4933097;29;20043;-65
2022/10/26 08:47:45;;;;;;;12.63;7.05;;;11.90;99.90;;;;;;4918414;29;20048;-65
2022/10/26 08:50:24;;;;;;;13.88;6.65;;;11.80;99.90;;;;;;4932643;29;20040;-66
2022/10/26 08:53:06;;;;;;;13.63;6.88;;;11.80;99.90;;;;;;4931339;29;20082;-66
2022/10/26 08:56:01;;;;;;;14.43;6.93;;;11.80;99.90;;;;;;4909705;29;20047;-66
2022/10/26 08:58:32;;;;;;;12.65;6.93;;;11.80;99.90;;;;;;4899231;29;20071;-66
2022/10/26 09:00:58;;;;;;;14.43;7.07;;;11.80;99.90;;;;;;4934185;29;20079;-66
2022/10/26 09:03:24;;;;;;;10.30;6.80;;;11.90;99.90;;;;;;4933791;29;20043;-65
2022/10/26 09:06:08;;;;;;;10.93;7.13;;;12.00;99.90;;;;;;4921195;29;20515;-65
2022/10/26 09:09:15;;;;;;;11.23;6.47;;;12.00;99.90;;;;;;4929440;29;20054;-66
2022/10/26 09:11:56;;;;;;;12.55;6.38;;;12.30;99.90;;;;;;4930617;29;20035;-66
2022/10/26 09:14:42;;;;;;;10.00;6.05;;;12.50;99.90;;;;;;4931873;29;20431;-65
2022/10/26 09:17:32;;;;;;;11.18;6.10;;;12.70;99.90;;;;;;4936315;29;20598;-66
2022/10/26 09:20:03;;;;;;;11.95;5.65;;;12.90;99.90;;;;;;4930858;29;20044;-65
2022/10/26 09:22:56;;;;;;;8.32;4.97;;;13.10;99.90;;;;;;4933118;29;20107;-65
2022/10/26 09:25:25;;;;;;;8.73;4.97;;;13.30;99.90;;;;;;4923363;29;20052;-65
2022/10/26 09:27:59;;;;;;;11.68;5.05;;;13.50;99.90;;;;;;4930629;29;20032;-65
2022/10/26 09:30:25;;;;;;;6.93;4.07;;;13.60;99.90;;;;;;4934230;29;20032;-65
2022/10/26 09:33:08;;;;;;;6.03;3.70;;;13.70;99.90;;;;;;4934105;29;20576;-65
2022/10/26 09:35:43;;;;;;;8.38;3.78;;;13.90;99.90;;;;;;4925579;29;20032;-66
2022/10/26 09:38:14;;;;;;;9.05;3.97;;;14.10;99.90;;;;;;4931169;29;20095;-66
2022/10/26 09:40:46;;;;;;;9.13;3.67;;;14.30;99.90;;;;;;4916256;29;20117;-65
2022/10/26 09:43:20;;;;;;;9.32;3.67;;;14.40;99.90;;;;;;4930097;29;20051;-66
2022/10/26 09:45:50;;;;;;;6.13;3.13;;;14.60;99.90;;;;;;4937017;29;20050;-66
2022/10/26 09:48:28;;;;;;;9.50;3.22;;;14.70;99.90;;;;;;4917973;29;20567;-66
2022/10/26 09:50:55;;;;;;;8.68;3.40;;;14.80;99.90;;;;;;4923999;29;20036;-65
2022/10/26 09:53:21;;;;;;;4.72;3.30;;;14.90;99.90;;;;;;4903124;29;20039;-65
2022/10/26 09:55:49;;;;;;;5.57;3.28;;;15.00;99.90;;;;;;4922865;29;20035;-66
2022/10/26 09:58:22;;;;;;;8.30;2.92;;;15.10;99.90;;;;;;4933126;29;20048;-66
2022/10/26 10:00:47;;;;;;;6.82;2.92;;;15.20;99.90;;;;;;4927899;29;20062;-66
2022/10/26 10:03:39;;;;;;;6.30;3.20;;;15.30;99.90;;;;;;4917770;29;20035;-64
2022/10/26 10:06:24;;;;;;;4.85;2.80;;;15.30;99.90;;;;;;4928005;29;20051;-66
2022/10/26 10:09:16;;;;;;;5.78;3.20;;;15.40;99.90;;;;;;4914647;29;20067;-67
2022/10/26 10:11:57;;;;;;;6.75;2.92;;;15.50;99.90;;;;;;4928860;29;20518;-65
2022/10/26 10:14:25;;;;;;;4.70;3.25;;;15.60;99.90;;;;;;4929159;29;20055;-66
2022/10/26 10:17:03;;;;;;;4.85;3.20;;;15.60;99.90;;;;;;4930500;29;20095;-66
2022/10/26 10:19:34;;;;;;;5.50;2.80;;;15.60;99.90;;;;;;4925124;29;20040;-65
2022/10/26 10:22:10;;;;;;;6.63;2.95;;;15.60;99.90;;;;;;4904557;29;20055;-65
2022/10/26 10:24:38;;;;;;;7.32;3.03;;;15.70;99.90;;;;;;4933485;29;20530;-66
2022/10/26 10:27:16;;;;;;;8.23;3.72;;;15.80;99.90;;;;;;4928331;29;20049;-66
2022/10/26 10:29:45;;;;;;;5.82;2.97;;;16.00;99.90;;;;;;4929550;29;20054;-66
2022/10/26 10:32:19;;;;;;;8.35;3.00;;;16.00;99.90;;;;;;4933107;29;20051;-67
2022/10/26 10:34:46;;;;;;;7.75;3.28;;;16.00;99.90;;;;;;4933756;29;20152;-65
2022/10/26 10:37:24;;;;;;;6.60;3.35;;;16.10;99.90;;;;;;4923332;29;20058;-65
2022/10/26 10:39:50;;;;;;;6.63;2.85;;;16.20;99.90;;;;;;4930921;29;20047;-66
2022/10/26 10:42:20;;;;;;;7.65;3.72;;;16.20;99.90;;;;;;4915701;29;20553;-64
2022/10/26 10:44:51;;;;;;;7.57;3.35;;;16.20;99.90;;;;;;4911280;29;20047;-65
2022/10/26 10:47:21;;;;;;;6.63;3.15;;;16.20;99.90;;;;;;4916885;29;20047;-67
2022/10/26 10:50:14;;;;;;;8.02;3.38;;;16.20;99.90;;;;;;4911491;29;20546;-66
2022/10/26 10:52:41;;;;;;;5.32;3.17;;;16.30;99.90;;;;;;4932210;29;20051;-67
2022/10/26 10:55:17;;;;;;;8.30;3.15;;;16.30;99.90;;;;;;4922555;29;20051;-67
2022/10/26 10:58:12;;;;;;;10.25;3.03;;;16.50;99.90;;;;;;4919289;29;20062;-66
2022/10/26 11:00:42;;;;;;;5.57;2.92;;;16.70;99.90;;;;;;4928235;29;20079;-66
2022/10/26 11:03:34;;;;;;;;;;;16.80;99.90;;;;;;4934914;29;20043;-67
2022/10/26 11:06:10;;;;;;;9.10;3.13;;;17.00;99.90;;;;;;4915286;29;20707;-66
2022/10/26 11:08:44;;;;;;;7.05;3.00;;;17.10;99.90;;;;;;4932245;29;20043;-66
2022/10/26 11:11:18;;;;;;;6.82;3.45;;;17.20;99.90;;;;;;4932705;29;20048;-66
2022/10/26 11:13:52;;;;;;;5.22;2.85;;;17.20;99.90;;;;;;4932654;29;20040;-66
2022/10/26 11:16:52;;;;;;;6.13;2.78;;;17.30;99.90;;;;;;4934426;29;20055;-66
2022/10/26 11:19:18;;;;;;;;;;;17.30;99.90;;;;;;4917419;29;20055;-67
2022/10/26 11:21:47;;;;;;;6.70;2.75;;;17.40;99.90;;;;;;4933684;29;20021;-67
2022/10/26 11:24:34;;;;;;;3.93;2.60;;;17.40;99.90;;;;;;4934585;29;20050;-66
2022/10/26 11:27:10;;;;;;;6.68;2.70;;;17.50;99.90;;;;;;4909683;29;20750;-66
2022/10/26 11:29:48;;;;;;;7.63;3.10;;;17.50;99.90;;;;;;4931453;29;20039;-66
2022/10/26 11:32:21;;;;;;;5.00;2.22;;;17.60;99.90;;;;;;4915529;29;20050;-66
2022/10/26 11:34:50;;;;;;;4.82;2.20;;;17.70;99.90;;;;;;4922669;29;20035;-66
2022/10/26 11:37:33;;;;;;;5.78;2.60;;;17.70;99.90;;;;;;4932836;29;20039;-66
2022/10/26 11:40:13;;;;;;;6.47;2.25;;;17.80;99.90;;;;;;4914070;29;20039;-66
2022/10/26 11:42:41;;;;;;;;;;;17.80;99.90;;;;;;4913965;29;20040;-67
2022/10/26 11:45:25;;;;;;;6.78;3.38;;;17.90;99.90;;;;;;4916874;29;19961;-67
2022/10/26 11:47:56;;;;;;;4.75;2.33;;;17.90;99.90;;;;;;4922534;29;20868;-66
2022/10/26 11:50:25;;;;;;;5.65;2.83;;;17.90;99.90;;;;;;4926347;29;20470;-67
2022/10/26 11:52:53;;;;;;;5.80;2.60;;;18.00;99.90;;;;;;4917404;29;20066;-66
2022/10/26 11:55:21;;;;;;;9.45;2.55;;;18.00;99.90;;;;;;4921936;29;20388;-67
2022/10/26 11:57:48;;;;;;;7.80;2.97;;;18.00;99.90;;;;;;4913768;29;20126;-66
2022/10/26 12:00:16;;;;;;;5.43;2.50;;;18.00;99.90;;;;;;4930615;29;20079;-67
2022/10/26 12:02:48;;;;;;;8.93;3.17;;;18.10;99.90;;;;;;4916730;29;20098;-66
2022/10/26 12:05:14;;;;;;;4.78;2.85;;;18.10;99.90;;;;;;4931854;29;20039;-66
2022/10/26 12:07:46;;;;;;;7.22;3.42;;;18.10;99.90;;;;;;4930364;29;20535;-67
2022/10/26 12:10:23;;;;;;;6.95;3.25;;;18.10;99.90;;;;;;4935028;29;20456;-67
2022/10/26 12:12:59;;;;;;;9.77;3.30;;;18.10;99.90;;;;;;4900839;29;20059;-67
2022/10/26 12:15:41;;;;;;;7.63;2.80;;;18.10;99.90;;;;;;4930026;29;20058;-67
2022/10/26 12:18:23;;;;;;;7.53;3.03;;;18.10;99.90;;;;;;4932634;29;20039;-67
2022/10/26 12:20:51;;;;;;;8.90;3.17;;;18.20;99.90;;;;;;4931719;29;20032;-68
2022/10/26 12:23:17;;;;;;;4.68;3.10;;;18.20;99.90;;;;;;4932539;29;20042;-67
2022/10/26 12:25:43;;;;;;;6.20;2.85;;;18.20;99.90;;;;;;4938578;29;20114;-65
2022/10/26 12:28:33;;;;;;;6.38;2.53;;;18.20;99.90;;;;;;4919647;29;20048;-66
2022/10/26 12:31:22;;;;;;;;;;;18.10;99.90;;;;;;4917443;29;20098;-66
2022/10/26 12:33:49;;;;;;;8.20;3.33;;;18.00;99.90;;;;;;4931664;29;19919;-68
2022/10/26 12:36:49;;;;;;;5.28;2.55;;;17.90;99.90;;;;;;4893723;29;20051;-67
2022/10/26 12:39:41;;;;;;;5.95;3.00;;;18.00;99.90;;;;;;4935432;29;20063;-67
2022/10/26 12:42:07;;;;;;;6.82;2.97;;;18.20;99.90;;;;;;4919380;29;20040;-66
2022/10/26 12:44:34;;;;;;;9.10;3.30;;;18.30;99.90;;;;;;4934163;29;20042;-66
2022/10/26 12:47:00;;;;;;;6.32;2.78;;;18.40;99.90;;;;;;4936678;29;20036;-67
2022/10/26 12:50:17;;;;;;;9.90;3.50;;;18.40;99.90;;;;;;4933826;29;20095;-67
2022/10/26 12:52:58;;;;;;;5.00;2.65;;;18.40;99.90;;;;;;4902868;29;20403;-66
2022/10/26 12:55:39;;;;;;;6.78;3.15;;;18.40;99.90;;;;;;4935327;29;20395;-67
2022/10/26 12:58:53;;;;;;;7.85;3.00;;;18.40;99.90;;;;;;4933465;29;20451;-65
2022/10/26 13:01:38;;;;;;;6.28;3.13;;;18.40;99.90;;;;;;4909048;29;20414;-66
2022/10/26 13:04:36;;;;;;;7.20;2.88;;;18.30;99.90;;;;;;4935706;29;20059;-66